sensor_id;sensor_type;location;lat;lon;timestamp;temperature;humidity
3086;DHT22;52812;48.960;9.108;2022-11-24T00:00:52;5.80;99.90
3086;DHT22;52812;48.960;9.108;2022-11-24T00:03:17;5.80;99.90
3086;DHT22;52812;48.960;9.108;2022-11-24T00:05:43;5.70;99.90
3086;DHT22;52812;48.960;9.108;2022-11-24T00:08:09;5.50;99.90
3086;DHT22;52812;48.960;9.108;2022-11-24T00:10:35;5.50;99.90
3086;DHT22;52812;48.960;9.108;2022-11-24T00:13:00;5.60;99.90
3086;DHT22;52812;48.960;9.108;2022-11-24T00:15:26;5.60;99.90
3086;DHT22;52812;48.960;9.108;2022-11-24T00:17:52;5.60;99.90
3086;DHT22;52812;48.960;9.108;2022-11-24T00:20:17;5.60;99.90
3086;DHT22;52812;48.960;9.108;2022-11-24T00:22:43;5.60;99.90
3086;DHT22;52812;48.960;9.108;2022-11-24T00:25:09;5.60;99.90
3086;DHT22;52812;48.960;9.108;2022-11-24T00:27:34;5.60;99.90
3086;DHT22;52812;48.960;9.108;2022-11-24T00:30:00;5.60;99.90
3086;DHT22;52812;48.960;9.108;2022-11-24T00:32:29;5.60;99.90
3086;DHT22;52812;48.960;9.108;2022-11-24T00:34:55;5.60;99.90
3086;DHT22;52812;48.960;9.108;2022-11-24T00:37:21;5.60;99.90
3086;DHT22;52812;48.960;9.108;2022-11-24T00:39:46;5.50;99.90
3086;DHT22;52812;48.960;9.108;2022-11-24T00:42:12;5.50;99.90
3086;DHT22;52812;48.960;9.108;2022-11-24T00:44:39;5.50;99.90
3086;DHT22;52812;48.960;9.108;2022-11-24T00:47:05;5.40;99.90
3086;DHT22;52812;48.960;9.108;2022-11-24T00:49:30;5.40;99.90
3086;DHT22;52812;48.960;9.108;2022-11-24T00:51:56;5.40;99.90
3086;DHT22;52812;48.960;9.108;2022-11-24T00:54:22;5.40;99.90
3086;DHT22;52812;48.960;9.108;2022-11-24T00:56:48;5.40;99.90
3086;DHT22;52812;48.960;9.108;2022-11-24T00:59:13;5.50;99.90
3086;DHT22;52812;48.960;9.108;2022-11-24T01:01:39;5.30;99.90
3086;DHT22;52812;48.960;9.108;2022-11-24T01:04:06;5.20;99.90
3086;DHT22;52812;48.960;9.108;2022-11-24T01:06:32;5.30;99.90
3086;DHT22;52812;48.960;9.108;2022-11-24T01:09:00;5.40;99.90
3086;DHT22;52812;48.960;9.108;2022-11-24T01:11:28;5.50;99.90
3086;DHT22;52812;48.960;9.108;2022-11-24T01:14:14;5.50;99.90
3086;DHT22;52812;48.960;9.108;2022-11-24T01:16:40;5.50;99.90
3086;DHT22;52812;48.960;9.108;2022-11-24T01:19:05;5.40;99.90
3086;DHT22;52812;48.960;9.108;2022-11-24T01:21:31;5.50;99.90
3086;DHT22;52812;48.960;9.108;2022-11-24T01:23:57;5.50;99.90
3086;DHT22;52812;48.960;9.108;2022-11-24T01:26:22;5.50;99.90
3086;DHT22;52812;48.960;9.108;2022-11-24T01:28:56;5.50;99.90
3086;DHT22;52812;48.960;9.108;2022-11-24T01:31:23;5.50;99.90
3086;DHT22;52812;48.960;9.108;2022-11-24T01:33:49;5.50;99.90
3086;DHT22;52812;48.960;9.108;2022-11-24T01:36:14;5.60;99.90
3086;DHT22;52812;48.960;9.108;2022-11-24T01:38:40;5.70;99.90
3086;DHT22;52812;48.960;9.108;2022-11-24T01:43:36;5.60;99.90
3086;DHT22;52812;48.960;9.108;2022-11-24T01:51:32;5.40;99.90
3086;DHT22;52812;48.960;9.108;2022-11-24T01:54:10;5.30;99.90
3086;DHT22;52812;48.960;9.108;2022-11-24T01:56:39;5.30;99.90
3086;DHT22;52812;48.960;9.108;2022-11-24T01:59:09;5.30;99.90
3086;DHT22;52812;48.960;9.108;2022-11-24T02:01:36;5.30;99.90
3086;DHT22;52812;48.960;9.108;2022-11-24T02:04:03;5.40;99.90
3086;DHT22;52812;48.960;9.108;2022-11-24T02:06:32;5.30;99.90
3086;DHT22;52812;48.960;9.108;2022-11-24T02:09:05;5.30;99.90
3086;DHT22;52812;48.960;9.108;2022-11-24T02:11:34;5.20;99.90
3086;DHT22;52812;48.960;9.108;2022-11-24T02:14:04;5.20;99.90
3086;DHT22;52812;48.960;9.108;2022-11-24T02:16:31;5.20;99.90
3086;DHT22;52812;48.960;9.108;2022-11-24T02:18:58;5.10;99.90
3086;DHT22;52812;48.960;9.108;2022-11-24T02:21:24;5.10;99.90
3086;DHT22;52812;48.960;9.108;2022-11-24T02:24:07;5.00;99.90
3086;DHT22;52812;48.960;9.108;2022-11-24T02:26:44;4.90;99.90
3086;DHT22;52812;48.960;9.108;2022-11-24T02:29:12;4.90;99.90
3086;DHT22;52812;48.960;9.108;2022-11-24T02:31:42;4.80;99.90
3086;DHT22;52812;48.960;9.108;2022-11-24T02:34:09;4.80;99.90
3086;DHT22;52812;48.960;9.108;2022-11-24T02:36:35;4.80;99.90
3086;DHT22;52812;48.960;9.108;2022-11-24T02:39:00;4.80;99.90
3086;DHT22;52812;48.960;9.108;2022-11-24T02:41:26;4.90;99.90
3086;DHT22;52812;48.960;9.108;2022-11-24T02:43:58;4.90;99.90
3086;DHT22;52812;48.960;9.108;2022-11-24T02:46:25;4.90;99.90
3086;DHT22;52812;48.960;9.108;2022-11-24T02:48:51;4.80;99.90
3086;DHT22;52812;48.960;9.108;2022-11-24T02:51:17;4.70;99.90
3086;DHT22;52812;48.960;9.108;2022-11-24T02:53:42;4.80;99.90
3086;DHT22;52812;48.960;9.108;2022-11-24T02:56:08;4.90;99.90
3086;DHT22;52812;48.960;9.108;2022-11-24T02:58:34;4.90;99.90
3086;DHT22;52812;48.960;9.108;2022-11-24T03:00:59;4.90;99.90
3086;DHT22;52812;48.960;9.108;2022-11-24T03:03:25;5.00;99.90
3086;DHT22;52812;48.960;9.108;2022-11-24T03:05:51;5.00;99.90
3086;DHT22;52812;48.960;9.108;2022-11-24T03:08:17;5.00;99.90
3086;DHT22;52812;48.960;9.108;2022-11-24T03:10:43;4.90;99.90
3086;DHT22;52812;48.960;9.108;2022-11-24T03:13:09;4.90;99.90
3086;DHT22;52812;48.960;9.108;2022-11-24T03:15:34;4.90;99.90
3086;DHT22;52812;48.960;9.108;2022-11-24T03:18:00;4.90;99.90
3086;DHT22;52812;48.960;9.108;2022-11-24T03:20:27;4.80;99.90
3086;DHT22;52812;48.960;9.108;2022-11-24T03:22:52;4.90;99.90
3086;DHT22;52812;48.960;9.108;2022-11-24T03:25:18;4.90;99.90
3086;DHT22;52812;48.960;9.108;2022-11-24T03:27:44;5.10;99.90
3086;DHT22;52812;48.960;9.108;2022-11-24T03:30:10;5.10;99.90
3086;DHT22;52812;48.960;9.108;2022-11-24T03:32:36;5.10;99.90
3086;DHT22;52812;48.960;9.108;2022-11-24T03:35:02;5.10;99.90
3086;DHT22;52812;48.960;9.108;2022-11-24T03:37:28;5.00;99.90
3086;DHT22;52812;48.960;9.108;2022-11-24T03:39:53;4.90;99.90
3086;DHT22;52812;48.960;9.108;2022-11-24T03:42:19;4.80;99.90
3086;DHT22;52812;48.960;9.108;2022-11-24T03:44:45;4.70;99.90
3086;DHT22;52812;48.960;9.108;2022-11-24T03:47:11;4.70;99.90
3086;DHT22;52812;48.960;9.108;2022-11-24T03:49:37;4.70;99.90
3086;DHT22;52812;48.960;9.108;2022-11-24T03:52:03;4.80;99.90
3086;DHT22;52812;48.960;9.108;2022-11-24T03:54:29;4.80;99.90
3086;DHT22;52812;48.960;9.108;2022-11-24T03:56:54;4.90;99.90
3086;DHT22;52812;48.960;9.108;2022-11-24T03:59:20;5.00;99.90
3086;DHT22;52812;48.960;9.108;2022-11-24T04:01:45;5.10;99.90
3086;DHT22;52812;48.960;9.108;2022-11-24T04:04:11;5.20;99.90
3086;DHT22;52812;48.960;9.108;2022-11-24T04:06:37;5.30;99.90
3086;DHT22;52812;48.960;9.108;2022-11-24T04:09:03;5.40;99.90
3086;DHT22;52812;48.960;9.108;2022-11-24T04:11:29;5.50;99.90
3086;DHT22;52812;48.960;9.108;2022-11-24T04:14:13;5.50;99.90
3086;DHT22;52812;48.960;9.108;2022-11-24T04:16:38;5.50;99.90
3086;DHT22;52812;48.960;9.108;2022-11-24T04:19:04;5.50;99.90
3086;DHT22;52812;48.960;9.108;2022-11-24T04:21:30;5.50;99.90
3086;DHT22;52812;48.960;9.108;2022-11-24T04:23:56;5.60;99.90
3086;DHT22;52812;48.960;9.108;2022-11-24T04:26:21;5.50;99.90
3086;DHT22;52812;48.960;9.108;2022-11-24T04:28:47;5.40;99.90
3086;DHT22;52812;48.960;9.108;2022-11-24T04:31:13;5.30;99.90
3086;DHT22;52812;48.960;9.108;2022-11-24T04:33:38;5.40;99.90
3086;DHT22;52812;48.960;9.108;2022-11-24T04:36:04;5.40;99.90
3086;DHT22;52812;48.960;9.108;2022-11-24T04:38:29;5.30;99.90
3086;DHT22;52812;48.960;9.108;2022-11-24T04:40:59;5.40;99.90
3086;DHT22;52812;48.960;9.108;2022-11-24T04:43:24;5.40;99.90
3086;DHT22;52812;48.960;9.108;2022-11-24T04:45:50;5.40;99.90
3086;DHT22;52812;48.960;9.108;2022-11-24T04:48:15;5.40;99.90
3086;DHT22;52812;48.960;9.108;2022-11-24T04:50:41;5.40;99.90
3086;DHT22;52812;48.960;9.108;2022-11-24T04:53:08;5.50;99.90
3086;DHT22;52812;48.960;9.108;2022-11-24T04:55:37;5.50;99.90
3086;DHT22;52812;48.960;9.108;2022-11-24T04:58:03;5.50;99.90
3086;DHT22;52812;48.960;9.108;2022-11-24T05:00:28;5.50;99.90
3086;DHT22;52812;48.960;9.108;2022-11-24T05:02:54;5.60;99.90
3086;DHT22;52812;48.960;9.108;2022-11-24T05:05:19;5.60;99.90
3086;DHT22;52812;48.960;9.108;2022-11-24T05:07:45;5.60;99.90
3086;DHT22;52812;48.960;9.108;2022-11-24T05:10:11;5.60;99.90
3086;DHT22;52812;48.960;9.108;2022-11-24T05:12:56;5.80;99.90
3086;DHT22;52812;48.960;9.108;2022-11-24T05:15:23;5.80;99.90
3086;DHT22;52812;48.960;9.108;2022-11-24T05:17:49;5.80;99.90
3086;DHT22;52812;48.960;9.108;2022-11-24T05:20:14;5.80;99.90
3086;DHT22;52812;48.960;9.108;2022-11-24T05:22:40;5.90;99.90
3086;DHT22;52812;48.960;9.108;2022-11-24T05:25:05;6.00;99.90
3086;DHT22;52812;48.960;9.108;2022-11-24T05:27:31;5.90;99.90
3086;DHT22;52812;48.960;9.108;2022-11-24T05:29:57;5.90;99.90
3086;DHT22;52812;48.960;9.108;2022-11-24T05:32:23;5.90;99.90
3086;DHT22;52812;48.960;9.108;2022-11-24T05:34:48;5.90;99.90
3086;DHT22;52812;48.960;9.108;2022-11-24T05:37:14;5.80;99.90
3086;DHT22;52812;48.960;9.108;2022-11-24T05:39:40;5.80;99.90
3086;DHT22;52812;48.960;9.108;2022-11-24T05:42:06;5.80;99.90
3086;DHT22;52812;48.960;9.108;2022-11-24T05:44:51;5.80;99.90
3086;DHT22;52812;48.960;9.108;2022-11-24T05:47:17;5.80;99.90
3086;DHT22;52812;48.960;9.108;2022-11-24T05:49:42;5.80;99.90
3086;DHT22;52812;48.960;9.108;2022-11-24T05:52:08;5.80;99.90
3086;DHT22;52812;48.960;9.108;2022-11-24T05:54:34;5.80;99.90
3086;DHT22;52812;48.960;9.108;2022-11-24T05:56:59;5.90;99.90
3086;DHT22;52812;48.960;9.108;2022-11-24T05:59:25;6.00;99.90
3086;DHT22;52812;48.960;9.108;2022-11-24T06:01:50;6.00;99.90
3086;DHT22;52812;48.960;9.108;2022-11-24T06:04:16;6.00;99.90
3086;DHT22;52812;48.960;9.108;2022-11-24T06:06:41;6.00;99.90
3086;DHT22;52812;48.960;9.108;2022-11-24T06:09:07;6.00;99.90
3086;DHT22;52812;48.960;9.108;2022-11-24T06:11:33;6.10;99.90
3086;DHT22;52812;48.960;9.108;2022-11-24T06:13:58;6.10;99.90
3086;DHT22;52812;48.960;9.108;2022-11-24T06:16:24;6.20;99.90
3086;DHT22;52812;48.960;9.108;2022-11-24T06:18:50;6.20;99.90
3086;DHT22;52812;48.960;9.108;2022-11-24T06:21:15;6.30;99.90
3086;DHT22;52812;48.960;9.108;2022-11-24T06:23:41;6.30;99.90
3086;DHT22;52812;48.960;9.108;2022-11-24T06:26:07;6.30;99.90
3086;DHT22;52812;48.960;9.108;2022-11-24T06:28:33;6.40;99.90
3086;DHT22;52812;48.960;9.108;2022-11-24T06:31:01;6.40;99.90
3086;DHT22;52812;48.960;9.108;2022-11-24T06:33:29;6.50;99.90
3086;DHT22;52812;48.960;9.108;2022-11-24T06:35:59;6.50;99.90
3086;DHT22;52812;48.960;9.108;2022-11-24T06:38:26;6.50;99.90
3086;DHT22;52812;48.960;9.108;2022-11-24T06:41:03;6.50;99.90
3086;DHT22;52812;48.960;9.108;2022-11-24T06:43:30;6.50;99.90
3086;DHT22;52812;48.960;9.108;2022-11-24T06:45:56;6.50;99.90
3086;DHT22;52812;48.960;9.108;2022-11-24T06:48:23;6.40;99.90
3086;DHT22;52812;48.960;9.108;2022-11-24T06:50:49;6.40;99.90
3086;DHT22;52812;48.960;9.108;2022-11-24T06:53:15;6.40;99.90
3086;DHT22;52812;48.960;9.108;2022-11-24T06:55:41;6.40;99.90
3086;DHT22;52812;48.960;9.108;2022-11-24T06:58:07;6.50;99.90
3086;DHT22;52812;48.960;9.108;2022-11-24T07:00:32;6.50;99.90
3086;DHT22;52812;48.960;9.108;2022-11-24T07:02:59;6.50;99.90
3086;DHT22;52812;48.960;9.108;2022-11-24T07:05:24;6.50;99.90
3086;DHT22;52812;48.960;9.108;2022-11-24T07:07:50;6.50;99.90
3086;DHT22;52812;48.960;9.108;2022-11-24T07:10:16;6.50;99.90
3086;DHT22;52812;48.960;9.108;2022-11-24T07:12:41;6.60;99.90
3086;DHT22;52812;48.960;9.108;2022-11-24T07:15:08;6.40;99.90
3086;DHT22;52812;48.960;9.108;2022-11-24T07:17:38;6.40;99.90
3086;DHT22;52812;48.960;9.108;2022-11-24T07:20:08;6.40;99.90
3086;DHT22;52812;48.960;9.108;2022-11-24T07:22:34;6.40;99.90
3086;DHT22;52812;48.960;9.108;2022-11-24T07:25:00;6.40;99.90
3086;DHT22;52812;48.960;9.108;2022-11-24T07:27:27;6.40;99.90
3086;DHT22;52812;48.960;9.108;2022-11-24T07:29:52;6.30;99.90
3086;DHT22;52812;48.960;9.108;2022-11-24T07:32:18;6.30;99.90
3086;DHT22;52812;48.960;9.108;2022-11-24T07:34:43;6.40;99.90
3086;DHT22;52812;48.960;9.108;2022-11-24T07:37:09;6.40;99.90
3086;DHT22;52812;48.960;9.108;2022-11-24T07:39:34;6.40;99.90
3086;DHT22;52812;48.960;9.108;2022-11-24T07:42:00;6.40;99.90
3086;DHT22;52812;48.960;9.108;2022-11-24T07:44:26;6.40;99.90
3086;DHT22;52812;48.960;9.108;2022-11-24T07:46:52;6.50;99.90
3086;DHT22;52812;48.960;9.108;2022-11-24T07:49:18;6.50;99.90
3086;DHT22;52812;48.960;9.108;2022-11-24T07:51:44;6.50;99.90
3086;DHT22;52812;48.960;9.108;2022-11-24T07:54:09;6.50;99.90
3086;DHT22;52812;48.960;9.108;2022-11-24T07:56:35;6.60;99.90
3086;DHT22;52812;48.960;9.108;2022-11-24T07:59:01;6.60;99.90
3086;DHT22;52812;48.960;9.108;2022-11-24T08:01:27;6.60;99.90
3086;DHT22;52812;48.960;9.108;2022-11-24T08:03:52;6.60;99.90
3086;DHT22;52812;48.960;9.108;2022-11-24T08:06:18;6.70;99.90
3086;DHT22;52812;48.960;9.108;2022-11-24T08:08:45;6.70;99.90
3086;DHT22;52812;48.960;9.108;2022-11-24T08:11:13;6.80;99.90
3086;DHT22;52812;48.960;9.108;2022-11-24T08:13:39;6.90;99.90
3086;DHT22;52812;48.960;9.108;2022-11-24T08:16:11;6.90;99.90
3086;DHT22;52812;48.960;9.108;2022-11-24T08:18:37;7.00;99.90
3086;DHT22;52812;48.960;9.108;2022-11-24T08:21:04;7.00;99.90
3086;DHT22;52812;48.960;9.108;2022-11-24T08:23:30;7.10;99.90
3086;DHT22;52812;48.960;9.108;2022-11-24T08:25:55;7.10;99.90
3086;DHT22;52812;48.960;9.108;2022-11-24T08:28:22;7.10;99.90
3086;DHT22;52812;48.960;9.108;2022-11-24T08:30:47;7.10;99.90
3086;DHT22;52812;48.960;9.108;2022-11-24T08:33:13;7.20;99.90
3086;DHT22;52812;48.960;9.108;2022-11-24T08:35:39;7.20;99.90
3086;DHT22;52812;48.960;9.108;2022-11-24T08:38:04;7.20;99.90
3086;DHT22;52812;48.960;9.108;2022-11-24T08:40:31;7.30;99.90
3086;DHT22;52812;48.960;9.108;2022-11-24T08:42:58;7.30;99.90
3086;DHT22;52812;48.960;9.108;2022-11-24T08:45:24;7.30;99.90
3086;DHT22;52812;48.960;9.108;2022-11-24T08:47:53;7.40;99.90
3086;DHT22;52812;48.960;9.108;2022-11-24T08:50:20;7.40;99.90
3086;DHT22;52812;48.960;9.108;2022-11-24T08:52:45;7.40;99.90
3086;DHT22;52812;48.960;9.108;2022-11-24T08:55:11;7.40;99.90
3086;DHT22;52812;48.960;9.108;2022-11-24T08:57:37;7.40;99.90
3086;DHT22;52812;48.960;9.108;2022-11-24T09:00:04;7.40;99.90
3086;DHT22;52812;48.960;9.108;2022-11-24T09:02:30;7.50;99.90
3086;DHT22;52812;48.960;9.108;2022-11-24T09:04:55;7.60;99.90
3086;DHT22;52812;48.960;9.108;2022-11-24T09:07:21;7.70;99.90
3086;DHT22;52812;48.960;9.108;2022-11-24T09:09:47;8.00;99.90
3086;DHT22;52812;48.960;9.108;2022-11-24T09:12:12;8.20;99.90
3086;DHT22;52812;48.960;9.108;2022-11-24T09:14:38;8.30;99.90
3086;DHT22;52812;48.960;9.108;2022-11-24T09:17:03;8.40;99.90
3086;DHT22;52812;48.960;9.108;2022-11-24T09:19:29;8.50;99.90
3086;DHT22;52812;48.960;9.108;2022-11-24T09:21:54;8.60;99.90
3086;DHT22;52812;48.960;9.108;2022-11-24T09:24:20;8.70;99.90
3086;DHT22;52812;48.960;9.108;2022-11-24T09:26:45;8.70;99.90
3086;DHT22;52812;48.960;9.108;2022-11-24T09:29:11;8.70;99.90
3086;DHT22;52812;48.960;9.108;2022-11-24T09:31:38;8.70;99.90
3086;DHT22;52812;48.960;9.108;2022-11-24T09:34:06;8.60;99.90
3086;DHT22;52812;48.960;9.108;2022-11-24T09:36:32;8.60;99.90
3086;DHT22;52812;48.960;9.108;2022-11-24T09:38:58;8.50;99.90
3086;DHT22;52812;48.960;9.108;2022-11-24T09:47:37;8.50;99.90
3086;DHT22;52812;48.960;9.108;2022-11-24T09:50:15;8.50;99.90
3086;DHT22;52812;48.960;9.108;2022-11-24T09:58:13;8.40;99.90
3086;DHT22;52812;48.960;9.108;2022-11-24T10:00:40;8.40;99.90
3086;DHT22;52812;48.960;9.108;2022-11-24T10:03:18;8.40;99.90
3086;DHT22;52812;48.960;9.108;2022-11-24T10:05:47;8.50;99.90
3086;DHT22;52812;48.960;9.108;2022-11-24T10:10:59;8.70;99.90
3086;DHT22;52812;48.960;9.108;2022-11-24T10:13:49;8.80;99.90
3086;DHT22;52812;48.960;9.108;2022-11-24T10:19:33;9.00;99.90
3086;DHT22;52812;48.960;9.108;2022-11-24T10:22:26;9.00;99.90
3086;DHT22;52812;48.960;9.108;2022-11-24T10:25:24;9.10;99.90
3086;DHT22;52812;48.960;9.108;2022-11-24T10:30:21;9.00;99.90
3086;DHT22;52812;48.960;9.108;2022-11-24T10:33:02;9.00;99.90
3086;DHT22;52812;48.960;9.108;2022-11-24T10:35:37;9.00;99.90
3086;DHT22;52812;48.960;9.108;2022-11-24T10:40:58;8.90;99.90
3086;DHT22;52812;48.960;9.108;2022-11-24T10:43:26;8.90;99.90
3086;DHT22;52812;48.960;9.108;2022-11-24T10:45:54;8.80;99.90
3086;DHT22;52812;48.960;9.108;2022-11-24T10:48:28;8.90;99.90
3086;DHT22;52812;48.960;9.108;2022-11-24T10:53:50;9.00;99.90
3086;DHT22;52812;48.960;9.108;2022-11-24T10:56:19;9.10;99.90
3086;DHT22;52812;48.960;9.108;2022-11-24T10:58:45;9.10;99.90
3086;DHT22;52812;48.960;9.108;2022-11-24T11:03:58;9.30;99.90
3086;DHT22;52812;48.960;9.108;2022-11-24T11:06:26;9.30;99.90
3086;DHT22;52812;48.960;9.108;2022-11-24T11:11:39;9.40;99.90
3086;DHT22;52812;48.960;9.108;2022-11-24T11:14:07;9.40;99.90
3086;DHT22;52812;48.960;9.108;2022-11-24T11:16:35;9.40;99.90
3086;DHT22;52812;48.960;9.108;2022-11-24T11:19:03;9.30;99.90
3086;DHT22;52812;48.960;9.108;2022-11-24T11:21:37;9.30;99.90
3086;DHT22;52812;48.960;9.108;2022-11-24T11:24:11;9.30;99.90
3086;DHT22;52812;48.960;9.108;2022-11-24T11:26:39;9.40;99.90
3086;DHT22;52812;48.960;9.108;2022-11-24T11:31:33;9.50;99.90
3086;DHT22;52812;48.960;9.108;2022-11-24T11:34:19;9.50;99.90
3086;DHT22;52812;48.960;9.108;2022-11-24T11:36:48;9.40;99.90
3086;DHT22;52812;48.960;9.108;2022-11-24T11:39:33;9.50;99.90
3086;DHT22;52812;48.960;9.108;2022-11-24T11:42:09;9.50;99.90
3086;DHT22;52812;48.960;9.108;2022-11-24T11:44:43;9.40;99.90
3086;DHT22;52812;48.960;9.108;2022-11-24T11:47:17;9.40;99.90
3086;DHT22;52812;48.960;9.108;2022-11-24T11:49:46;9.50;99.90
3086;DHT22;52812;48.960;9.108;2022-11-24T11:52:18;9.40;99.90
3086;DHT22;52812;48.960;9.108;2022-11-24T11:55:09;9.50;99.90
3086;DHT22;52812;48.960;9.108;2022-11-24T12:00:18;9.60;99.90
3086;DHT22;52812;48.960;9.108;2022-11-24T12:03:09;9.70;99.90
3086;DHT22;52812;48.960;9.108;2022-11-24T12:14:16;9.80;99.90
3086;DHT22;52812;48.960;9.108;2022-11-24T12:22:20;10.00;99.90
3086;DHT22;52812;48.960;9.108;2022-11-24T12:25:01;10.10;99.90
3086;DHT22;52812;48.960;9.108;2022-11-24T12:27:32;10.10;99.90
3086;DHT22;52812;48.960;9.108;2022-11-24T12:30:07;10.10;99.90
3086;DHT22;52812;48.960;9.108;2022-11-24T12:43:40;9.80;99.90
3086;DHT22;52812;48.960;9.108;2022-11-24T12:49:28;9.90;99.90
3086;DHT22;52812;48.960;9.108;2022-11-24T12:52:27;10.10;99.90
3086;DHT22;52812;48.960;9.108;2022-11-24T12:54:55;10.10;99.90
3086;DHT22;52812;48.960;9.108;2022-11-24T12:57:38;10.30;99.90
3086;DHT22;52812;48.960;9.108;2022-11-24T13:00:29;10.40;99.90
3086;DHT22;52812;48.960;9.108;2022-11-24T13:05:56;10.50;99.90
3086;DHT22;52812;48.960;9.108;2022-11-24T13:08:25;10.50;99.90
3086;DHT22;52812;48.960;9.108;2022-11-24T13:10:52;10.40;99.90
3086;DHT22;52812;48.960;9.108;2022-11-24T13:13:18;10.40;99.90
3086;DHT22;52812;48.960;9.108;2022-11-24T13:23:58;10.10;99.90
3086;DHT22;52812;48.960;9.108;2022-11-24T13:31:53;9.80;99.90
3086;DHT22;52812;48.960;9.108;2022-11-24T13:40:35;9.60;99.90
3086;DHT22;52812;48.960;9.108;2022-11-24T13:58:36;9.10;99.90
3086;DHT22;52812;48.960;9.108;2022-11-24T14:03:46;9.00;99.90
3086;DHT22;52812;48.960;9.108;2022-11-24T14:06:28;9.00;99.90
3086;DHT22;52812;48.960;9.108;2022-11-24T14:08:57;9.00;99.90
3086;DHT22;52812;48.960;9.108;2022-11-24T14:11:23;9.00;99.90
3086;DHT22;52812;48.960;9.108;2022-11-24T14:13:51;8.90;99.90
3086;DHT22;52812;48.960;9.108;2022-11-24T14:16:21;9.00;99.90
3086;DHT22;52812;48.960;9.108;2022-11-24T14:18:49;9.00;99.90
3086;DHT22;52812;48.960;9.108;2022-11-24T14:21:29;9.00;99.90
3086;DHT22;52812;48.960;9.108;2022-11-24T14:24:01;9.10;99.90
3086;DHT22;52812;48.960;9.108;2022-11-24T14:26:34;9.20;99.90
3086;DHT22;52812;48.960;9.108;2022-11-24T14:29:06;9.30;99.90
3086;DHT22;52812;48.960;9.108;2022-11-24T14:31:32;9.30;99.90
3086;DHT22;52812;48.960;9.108;2022-11-24T14:36:39;9.20;99.90
3086;DHT22;52812;48.960;9.108;2022-11-24T14:39:06;9.10;99.90
3086;DHT22;52812;48.960;9.108;2022-11-24T14:41:35;8.90;99.90
3086;DHT22;52812;48.960;9.108;2022-11-24T14:46:29;9.00;99.90
3086;DHT22;52812;48.960;9.108;2022-11-24T14:48:55;9.00;99.90
3086;DHT22;52812;48.960;9.108;2022-11-24T14:51:34;8.90;99.90
3086;DHT22;52812;48.960;9.108;2022-11-24T14:54:02;8.80;99.90
3086;DHT22;52812;48.960;9.108;2022-11-24T14:56:35;8.80;99.90
3086;DHT22;52812;48.960;9.108;2022-11-24T14:59:02;8.80;99.90
3086;DHT22;52812;48.960;9.108;2022-11-24T15:01:31;8.70;99.90
3086;DHT22;52812;48.960;9.108;2022-11-24T15:04:23;8.60;99.90
3086;DHT22;52812;48.960;9.108;2022-11-24T15:07:23;8.40;99.90
3086;DHT22;52812;48.960;9.108;2022-11-24T15:09:55;8.30;99.90
3086;DHT22;52812;48.960;9.108;2022-11-24T15:15:16;8.20;99.90
3086;DHT22;52812;48.960;9.108;2022-11-24T15:17:50;8.20;99.90
3086;DHT22;52812;48.960;9.108;2022-11-24T15:22:49;8.00;99.90
3086;DHT22;52812;48.960;9.108;2022-11-24T15:25:29;7.90;99.90
3086;DHT22;52812;48.960;9.108;2022-11-24T15:27:55;7.70;99.90
3086;DHT22;52812;48.960;9.108;2022-11-24T15:30:21;7.50;99.90
3086;DHT22;52812;48.960;9.108;2022-11-24T15:32:54;7.40;99.90
3086;DHT22;52812;48.960;9.108;2022-11-24T15:35:21;7.30;99.90
3086;DHT22;52812;48.960;9.108;2022-11-24T15:37:48;7.20;99.90
3086;DHT22;52812;48.960;9.108;2022-11-24T15:40:14;7.10;99.90
3086;DHT22;52812;48.960;9.108;2022-11-24T15:42:40;7.00;99.90
3086;DHT22;52812;48.960;9.108;2022-11-24T15:45:06;6.90;99.90
3086;DHT22;52812;48.960;9.108;2022-11-24T15:47:31;6.80;99.90
3086;DHT22;52812;48.960;9.108;2022-11-24T15:49:57;6.70;99.90
3086;DHT22;52812;48.960;9.108;2022-11-24T15:52:22;6.70;99.90
3086;DHT22;52812;48.960;9.108;2022-11-24T15:54:51;6.50;99.90
3086;DHT22;52812;48.960;9.108;2022-11-24T15:57:17;6.40;99.90
3086;DHT22;52812;48.960;9.108;2022-11-24T15:59:43;6.30;99.90
3086;DHT22;52812;48.960;9.108;2022-11-24T16:02:09;6.20;99.90
3086;DHT22;52812;48.960;9.108;2022-11-24T16:04:34;6.20;99.90
3086;DHT22;52812;48.960;9.108;2022-11-24T16:07:00;6.20;99.90
3086;DHT22;52812;48.960;9.108;2022-11-24T16:09:25;6.10;99.90
3086;DHT22;52812;48.960;9.108;2022-11-24T16:11:51;6.00;99.90
3086;DHT22;52812;48.960;9.108;2022-11-24T16:14:16;5.90;99.90
3086;DHT22;52812;48.960;9.108;2022-11-24T16:16:42;6.00;99.90
3086;DHT22;52812;48.960;9.108;2022-11-24T16:19:08;6.10;99.90
3086;DHT22;52812;48.960;9.108;2022-11-24T16:21:34;6.20;99.90
3086;DHT22;52812;48.960;9.108;2022-11-24T16:24:00;6.00;99.90
3086;DHT22;52812;48.960;9.108;2022-11-24T16:26:26;5.80;99.90
3086;DHT22;52812;48.960;9.108;2022-11-24T16:28:51;5.70;99.90
3086;DHT22;52812;48.960;9.108;2022-11-24T16:31:17;5.50;99.90
3086;DHT22;52812;48.960;9.108;2022-11-24T16:33:44;5.40;99.90
3086;DHT22;52812;48.960;9.108;2022-11-24T16:36:11;5.30;99.90
3086;DHT22;52812;48.960;9.108;2022-11-24T16:38:37;5.20;99.90
3086;DHT22;52812;48.960;9.108;2022-11-24T16:41:02;5.20;99.90
3086;DHT22;52812;48.960;9.108;2022-11-24T16:43:28;5.10;99.90
3086;DHT22;52812;48.960;9.108;2022-11-24T16:48:42;5.20;99.90
3086;DHT22;52812;48.960;9.108;2022-11-24T16:51:09;5.20;99.90
3086;DHT22;52812;48.960;9.108;2022-11-24T16:53:35;5.10;99.90
3086;DHT22;52812;48.960;9.108;2022-11-24T16:56:01;5.10;99.90
3086;DHT22;52812;48.960;9.108;2022-11-24T16:58:27;5.00;99.90
3086;DHT22;52812;48.960;9.108;2022-11-24T17:00:53;4.90;99.90
3086;DHT22;52812;48.960;9.108;2022-11-24T17:03:18;4.90;99.90
3086;DHT22;52812;48.960;9.108;2022-11-24T17:05:55;4.90;99.90
3086;DHT22;52812;48.960;9.108;2022-11-24T17:08:21;5.00;99.90
3086;DHT22;52812;48.960;9.108;2022-11-24T17:10:46;5.00;99.90
3086;DHT22;52812;48.960;9.108;2022-11-24T17:13:12;4.90;99.90
3086;DHT22;52812;48.960;9.108;2022-11-24T17:15:38;4.80;99.90
3086;DHT22;52812;48.960;9.108;2022-11-24T17:18:04;4.70;99.90
3086;DHT22;52812;48.960;9.108;2022-11-24T17:20:29;4.60;99.90
3086;DHT22;52812;48.960;9.108;2022-11-24T17:22:55;4.30;99.90
3086;DHT22;52812;48.960;9.108;2022-11-24T17:25:21;4.10;99.90
3086;DHT22;52812;48.960;9.108;2022-11-24T17:27:46;4.10;99.90
3086;DHT22;52812;48.960;9.108;2022-11-24T17:30:12;4.10;99.90
3086;DHT22;52812;48.960;9.108;2022-11-24T17:32:38;4.20;99.90
3086;DHT22;52812;48.960;9.108;2022-11-24T17:35:03;4.30;99.90
3086;DHT22;52812;48.960;9.108;2022-11-24T17:37:30;4.30;99.90
3086;DHT22;52812;48.960;9.108;2022-11-24T17:39:56;4.30;99.90
3086;DHT22;52812;48.960;9.108;2022-11-24T17:42:22;4.40;99.90
3086;DHT22;52812;48.960;9.108;2022-11-24T17:44:47;4.40;99.90
3086;DHT22;52812;48.960;9.108;2022-11-24T17:47:13;4.30;99.90
3086;DHT22;52812;48.960;9.108;2022-11-24T17:49:39;4.30;99.90
3086;DHT22;52812;48.960;9.108;2022-11-24T17:52:04;4.10;99.90
3086;DHT22;52812;48.960;9.108;2022-11-24T17:54:30;3.90;99.90
3086;DHT22;52812;48.960;9.108;2022-11-24T17:56:56;3.70;99.90
3086;DHT22;52812;48.960;9.108;2022-11-24T17:59:21;3.70;99.90
3086;DHT22;52812;48.960;9.108;2022-11-24T18:01:47;3.60;99.90
3086;DHT22;52812;48.960;9.108;2022-11-24T18:04:12;3.50;99.90
3086;DHT22;52812;48.960;9.108;2022-11-24T18:06:38;3.50;99.90
3086;DHT22;52812;48.960;9.108;2022-11-24T18:09:04;3.50;99.90
3086;DHT22;52812;48.960;9.108;2022-11-24T18:11:30;3.50;99.90
3086;DHT22;52812;48.960;9.108;2022-11-24T18:13:58;3.50;99.90